Time;durP1;ratioP1;P1;durP2;ratioP2;P2;SDS_P1;SDS_P2;PMS_P1;PMS_P2;Temp;Humidity;BMP_temperature;BMP_pressure;BME280_temperature;BME280_humidity;BME280_pressure;Samples;Min_cycle;Max_cycle;Signal;HPM_P1;HPM_P2
2022/04/17 00:01:33;;;;;;;4.80;4.10;;;2.00;99.90;;;;;;5039966;28;20217;-80
2022/04/17 00:03:59;;;;;;;4.77;4.27;;;;;;;;;;5039520;28;20186;-79
2022/04/17 00:06:24;;;;;;;5.43;3.83;;;2.00;99.90;;;;;;5042738;28;20253;-79
2022/04/17 00:08:50;;;;;;;7.33;3.83;;;1.80;99.90;;;;;;5046618;28;20443;-79
2022/04/17 00:11:16;;;;;;;5.00;3.70;;;1.90;99.90;;;;;;5038070;28;20204;-79
2022/04/17 00:13:44;;;;;;;6.50;5.33;;;1.90;99.90;;;;;;5038747;28;20201;-79
2022/04/17 00:16:10;;;;;;;5.20;3.67;;;1.90;99.90;;;;;;5037136;28;20182;-79
2022/04/17 00:18:36;;;;;;;4.77;3.93;;;1.90;99.90;;;;;;5041848;28;20463;-79
2022/04/17 00:21:03;;;;;;;4.73;3.53;;;1.60;99.90;;;;;;5042725;28;20428;-79
2022/04/17 00:23:29;;;;;;;4.33;3.87;;;1.90;99.90;;;;;;5041079;28;20417;-79
2022/04/17 00:25:55;;;;;;;4.53;3.77;;;1.90;99.90;;;;;;5037882;28;20471;-79
2022/04/17 00:28:21;;;;;;;4.50;3.90;;;1.80;99.90;;;;;;5037579;28;20185;-79
2022/04/17 00:30:48;;;;;;;4.80;3.70;;;1.70;99.90;;;;;;5037186;28;20277;-78
2022/04/17 00:33:14;;;;;;;4.20;3.50;;;1.60;99.90;;;;;;5036036;28;20644;-79
2022/04/17 00:35:41;;;;;;;4.53;3.20;;;1.60;99.90;;;;;;5037502;28;20416;-78
2022/04/17 00:38:06;;;;;;;4.97;3.57;;;2.10;99.90;;;;;;5036370;28;20614;-79
2022/04/17 00:40:32;;;;;;;4.70;3.70;;;1.60;99.90;;;;;;5035684;28;20536;-79
2022/04/17 00:42:59;;;;;;;5.57;4.10;;;1.60;99.90;;;;;;5034971;28;20185;-78
2022/04/17 00:45:25;;;;;;;3.73;3.27;;;1.50;99.90;;;;;;5035008;28;20528;-81
2022/04/17 00:47:51;;;;;;;4.63;3.83;;;1.60;99.90;;;;;;5036009;28;20860;-81
2022/04/17 00:50:18;;;;;;;5.47;3.50;;;1.50;99.90;;;;;;5034112;28;20448;-81
2022/04/17 00:52:45;;;;;;;5.23;4.17;;;1.60;99.90;;;;;;5035004;28;20174;-81
2022/04/17 00:55:15;;;;;;;3.63;3.27;;;1.50;99.90;;;;;;5038486;28;20492;-81
2022/04/17 00:57:41;;;;;;;4.53;3.70;;;1.70;99.90;;;;;;5041181;28;20409;-81
2022/04/17 01:00:07;;;;;;;5.47;3.63;;;1.50;99.90;;;;;;5040971;28;20457;-82
2022/04/17 01:02:33;;;;;;;4.67;3.60;;;1.50;99.90;;;;;;5040746;28;20451;-81
2022/04/17 01:04:59;;;;;;;5.17;3.60;;;1.40;99.90;;;;;;5040745;28;20409;-81
2022/04/17 01:07:24;;;;;;;4.27;3.70;;;1.30;99.90;;;;;;5040844;28;20178;-81
2022/04/17 01:09:51;;;;;;;5.00;3.97;;;1.40;99.90;;;;;;5041243;28;20178;-82
2022/04/17 01:12:18;;;;;;;4.00;3.43;;;1.40;99.90;;;;;;5038469;28;20240;-81
2022/04/17 01:14:44;;;;;;;3.87;3.20;;;1.40;99.90;;;;;;5040395;28;20409;-81
2022/04/17 01:17:12;;;;;;;4.27;3.03;;;1.30;99.90;;;;;;5045409;28;20416;-81
2022/04/17 01:19:39;;;;;;;6.63;3.20;;;1.40;99.90;;;;;;5043587;28;20413;-81
2022/04/17 01:22:06;;;;;;;6.23;3.53;;;1.30;99.90;;;;;;5037220;28;20450;-81
2022/04/17 01:27:19;;;;;;;3.90;3.60;;;1.30;99.90;;;;;;5040926;28;20408;-80
2022/04/17 01:29:47;;;;;;;4.23;3.70;;;1.30;99.90;;;;;;5037729;28;20974;-81
2022/04/17 01:32:13;;;;;;;3.53;3.13;;;1.40;99.90;;;;;;5038670;28;20424;-81
2022/04/17 01:34:39;;;;;;;4.00;3.13;;;1.20;99.90;;;;;;5036862;28;20412;-81
2022/04/17 01:37:05;;;;;;;4.40;3.30;;;1.20;99.90;;;;;;5037111;28;20468;-81
2022/04/17 01:39:31;;;;;;;5.67;3.43;;;1.70;99.90;;;;;;5037100;28;20174;-81
2022/04/17 01:41:58;;;;;;;4.17;3.17;;;1.20;99.90;;;;;;5038544;28;20429;-81
2022/04/17 01:44:27;;;;;;;3.77;2.97;;;1.20;99.90;;;;;;5036849;28;20443;-81
2022/04/17 01:46:53;;;;;;;3.87;3.40;;;1.00;99.90;;;;;;5036917;28;20408;-81
2022/04/17 01:49:19;;;;;;;5.07;3.10;;;1.10;99.90;;;;;;5037006;28;20588;-81
2022/04/17 01:51:47;;;;;;;3.27;2.70;;;1.20;99.90;;;;;;5038102;28;20321;-81
2022/04/17 01:54:15;;;;;;;4.73;3.83;;;1.20;99.90;;;;;;5038126;28;20412;-81
2022/04/17 01:56:42;;;;;;;3.87;3.33;;;1.20;99.90;;;;;;5036654;28;20790;-81
2022/04/17 01:59:09;;;;;;;3.40;3.07;;;1.10;99.90;;;;;;5036846;28;20409;-81
2022/04/17 02:01:36;;;;;;;3.80;3.30;;;1.10;99.90;;;;;;5036327;28;20429;-81
2022/04/17 02:04:03;;;;;;;4.00;3.60;;;1.10;99.90;;;;;;5037921;28;20409;-81
2022/04/17 02:06:28;;;;;;;3.97;3.30;;;1.00;99.90;;;;;;5037949;28;20408;-81
2022/04/17 02:08:55;;;;;;;5.73;3.73;;;1.80;99.90;;;;;;5037895;28;20453;-81
2022/04/17 02:11:22;;;;;;;4.40;3.17;;;0.80;99.90;;;;;;5036731;28;20328;-81
2022/04/17 02:13:51;;;;;;;4.27;3.00;;;0.80;99.90;;;;;;5037233;28;20449;-81
2022/04/17 02:16:17;;;;;;;4.43;3.97;;;0.80;99.90;;;;;;5036997;28;20405;-81
2022/04/17 02:18:47;;;;;;;4.27;3.13;;;0.70;99.90;;;;;;5038772;28;20413;-81
2022/04/17 02:21:14;;;;;;;3.40;2.97;;;0.60;99.90;;;;;;5041460;28;20476;-81
2022/04/17 02:23:43;;;;;;;4.63;3.37;;;0.70;99.90;;;;;;5042002;28;20481;-81
2022/04/17 02:26:10;;;;;;;3.43;3.13;;;0.60;99.90;;;;;;5041012;28;20500;-81
2022/04/17 02:28:40;;;;;;;3.90;3.40;;;0.60;99.90;;;;;;5040952;28;20922;-81
2022/04/17 02:31:07;;;;;;;5.80;3.03;;;0.60;99.90;;;;;;5040655;28;20437;-81
2022/04/17 02:33:33;;;;;;;4.33;3.23;;;0.60;99.90;;;;;;5043384;28;20461;-81
2022/04/17 02:35:59;;;;;;;3.73;3.23;;;0.90;99.90;;;;;;5052754;28;20517;-81
2022/04/17 02:38:26;;;;;;;3.77;3.37;;;1.10;99.90;;;;;;5042840;28;20429;-81
2022/04/17 02:40:55;;;;;;;5.27;3.97;;;0.50;99.90;;;;;;5041588;28;20511;-82
2022/04/17 02:43:21;;;;;;;7.83;3.33;;;0.50;99.90;;;;;;5041992;28;20413;-80
2022/04/17 02:45:49;;;;;;;4.33;3.47;;;0.60;99.90;;;;;;5041079;28;20424;-81
2022/04/17 02:48:15;;;;;;;4.67;3.37;;;0.80;99.90;;;;;;5040955;28;20883;-81
2022/04/17 02:50:41;;;;;;;4.73;3.53;;;0.40;99.90;;;;;;5038745;28;20471;-81
2022/04/17 02:53:07;;;;;;;5.17;3.47;;;0.40;99.90;;;;;;5040121;28;20171;-81
2022/04/17 02:55:33;;;;;;;5.27;3.87;;;1.20;99.90;;;;;;5039167;28;20186;-81
2022/04/17 02:57:59;;;;;;;4.53;3.70;;;0.40;99.90;;;;;;5039569;28;20415;-81
2022/04/17 03:00:26;;;;;;;5.87;3.50;;;1.30;99.90;;;;;;5039308;28;20454;-81
2022/04/17 03:05:37;;;;;;;4.37;3.77;;;0.60;99.90;;;;;;5040968;28;20407;-81
2022/04/17 03:08:04;;;;;;;4.90;3.60;;;0.40;99.90;;;;;;5039347;28;20479;-80
2022/04/17 03:10:30;;;;;;;3.97;3.53;;;0.30;99.90;;;;;;5039036;28;20214;-81
2022/04/17 03:12:56;;;;;;;3.93;3.47;;;0.40;99.90;;;;;;5039245;28;20409;-81
2022/04/17 03:15:23;;;;;;;5.13;3.50;;;0.30;99.90;;;;;;5040033;28;20466;-79
2022/04/17 03:17:49;;;;;;;4.13;3.00;;;0.20;99.90;;;;;;5039622;28;20412;-81
2022/04/17 03:20:14;;;;;;;5.13;3.90;;;0.90;99.90;;;;;;5040134;28;20429;-81
2022/04/17 03:22:43;;;;;;;4.27;3.47;;;0.20;99.90;;;;;;5040237;28;20402;-81
2022/04/17 03:25:09;;;;;;;5.17;4.00;;;0.30;99.90;;;;;;5040209;28;20265;-81
2022/04/17 03:27:35;;;;;;;4.57;3.90;;;0.40;99.90;;;;;;5041245;28;20420;-81
2022/04/17 03:30:02;;;;;;;4.57;3.77;;;0.50;99.90;;;;;;5041218;28;20812;-81
2022/04/17 03:32:28;;;;;;;6.60;4.03;;;0.10;99.90;;;;;;5041702;28;20177;-82
2022/04/17 03:34:54;;;;;;;4.63;3.70;;;0.10;99.90;;;;;;5039479;28;20417;-81
2022/04/17 03:37:19;;;;;;;5.83;4.43;;;0.10;99.90;;;;;;5039446;28;20198;-81
2022/04/17 03:39:46;;;;;;;5.67;4.30;;;-0.10;99.90;;;;;;5041323;28;20178;-81
2022/04/17 03:42:12;;;;;;;5.43;4.30;;;0.00;99.90;;;;;;5051905;28;20675;-81
2022/04/17 03:44:38;;;;;;;5.47;4.07;;;1.20;99.90;;;;;;5058853;28;20393;-80
2022/04/17 03:47:06;;;;;;;4.53;3.67;;;-0.20;99.90;;;;;;5058610;28;20421;-80
2022/04/17 03:49:32;;;;;;;4.97;4.07;;;-0.20;99.90;;;;;;5040426;28;20463;-81
2022/04/17 03:52:00;;;;;;;7.07;4.27;;;-0.20;99.90;;;;;;5038167;28;20510;-81
2022/04/17 03:54:26;;;;;;;5.97;3.57;;;-0.10;99.90;;;;;;5036285;28;20171;-81
2022/04/17 03:56:52;;;;;;;6.40;4.60;;;-0.20;99.90;;;;;;5036189;28;20416;-81
2022/04/17 03:59:18;;;;;;;4.93;4.23;;;-0.30;99.90;;;;;;5035820;28;20416;-81
2022/04/17 04:01:46;;;;;;;7.40;3.90;;;-0.30;99.90;;;;;;5037497;28;20428;-81
2022/04/17 04:04:14;;;;;;;6.37;4.40;;;-0.30;99.90;;;;;;5038332;28;20421;-81
2022/04/17 04:06:40;;;;;;;5.07;4.30;;;0.00;99.90;;;;;;5038444;28;20420;-81
2022/04/17 04:09:06;;;;;;;6.90;4.40;;;-0.30;99.90;;;;;;5038980;28;20482;-81
2022/04/17 04:11:32;;;;;;;4.57;4.00;;;0.10;99.90;;;;;;5039618;28;20425;-81
2022/04/17 04:13:58;;;;;;;6.17;4.90;;;-0.30;99.90;;;;;;5038209;28;20328;-81
2022/04/17 04:16:23;;;;;;;5.77;4.37;;;-0.30;99.90;;;;;;5039986;28;20176;-81
2022/04/17 04:18:49;;;;;;;7.87;4.87;;;-0.30;99.90;;;;;;5039144;28;20178;-81
2022/04/17 04:21:15;;;;;;;6.33;4.43;;;-0.30;99.90;;;;;;5038792;28;20532;-82
2022/04/17 04:23:41;;;;;;;8.87;4.87;;;-0.40;99.90;;;;;;5038902;28;20253;-81
2022/04/17 04:26:07;;;;;;;8.63;4.27;;;-0.40;99.90;;;;;;5040286;28;20178;-81
2022/04/17 04:28:34;;;;;;;6.83;4.43;;;-0.40;99.90;;;;;;5039261;28;20931;-81
2022/04/17 04:31:21;;;;;;;5.20;3.93;;;-0.50;99.90;;;;;;5039762;28;20197;-81
2022/04/17 04:33:46;;;;;;;4.90;4.17;;;-0.50;99.90;;;;;;5054208;28;20414;-81
2022/04/17 04:36:12;;;;;;;4.70;4.03;;;0.10;99.90;;;;;;5038137;28;20475;-81
2022/04/17 04:38:39;;;;;;;6.77;4.77;;;-0.20;99.90;;;;;;5037494;28;20226;-81
2022/04/17 04:41:05;;;;;;;4.97;3.90;;;-0.40;99.90;;;;;;5038633;28;20196;-81
2022/04/17 04:43:31;;;;;;;5.67;4.17;;;0.50;99.90;;;;;;5039237;28;20408;-81
2022/04/17 04:46:12;;;;;;;5.77;4.37;;;-0.40;99.90;;;;;;5039380;28;20409;-81
2022/04/17 04:51:28;;;;;;;7.00;4.23;;;-0.30;99.90;;;;;;5040087;28;20426;-81
2022/04/17 04:53:56;;;;;;;8.23;4.80;;;-0.30;99.90;;;;;;5038798;28;20409;-81
2022/04/17 04:56:23;;;;;;;5.40;4.43;;;-0.30;99.90;;;;;;5037418;28;20413;-81
2022/04/17 04:58:48;;;;;;;6.60;4.40;;;-0.20;99.90;;;;;;5037635;28;20424;-81
2022/04/17 05:01:14;;;;;;;6.90;4.47;;;0.10;99.90;;;;;;5038413;28;20437;-81
2022/04/17 05:03:41;;;;;;;6.37;4.30;;;-0.30;99.90;;;;;;5038256;28;20178;-81
2022/04/17 05:06:10;;;;;;;7.07;4.83;;;1.10;99.90;;;;;;5037767;28;20632;-81
2022/04/17 05:08:35;;;;;;;5.07;4.20;;;0.50;99.90;;;;;;5039109;28;20427;-81
2022/04/17 05:11:01;;;;;;;5.37;4.50;;;-0.10;99.90;;;;;;5037486;28;20440;-81
2022/04/17 05:13:27;;;;;;;7.30;4.63;;;0.00;99.90;;;;;;5039014;28;20170;-81
2022/04/17 05:15:52;;;;;;;6.90;4.73;;;-0.10;99.90;;;;;;5037929;28;20221;-81
2022/04/17 05:18:18;;;;;;;5.00;4.07;;;0.10;99.90;;;;;;5038629;28;20182;-80
2022/04/17 05:20:44;;;;;;;6.77;4.17;;;0.00;99.90;;;;;;5039791;28;20206;-82
2022/04/17 05:23:26;;;;;;;4.47;3.77;;;0.10;99.90;;;;;;5038853;28;20192;-81
2022/04/17 05:25:58;;;;;;;5.53;4.17;;;0.40;99.90;;;;;;5038045;28;20189;-81
2022/04/17 05:28:24;;;;;;;4.90;4.13;;;0.80;99.90;;;;;;5037519;28;20826;-82
2022/04/17 05:30:50;;;;;;;7.67;5.07;;;0.50;99.90;;;;;;5037649;28;20511;-81
2022/04/17 05:33:20;;;;;;;5.60;4.03;;;1.20;99.90;;;;;;5037137;28;20765;-82
2022/04/17 05:35:47;;;;;;;6.00;3.93;;;0.80;99.90;;;;;;5038365;28;20405;-81
2022/04/17 05:38:13;;;;;;;5.33;3.60;;;0.70;99.90;;;;;;5037327;28;20433;-81
2022/04/17 05:40:41;;;;;;;5.90;4.03;;;0.80;99.90;;;;;;5048355;28;20441;-80
2022/04/17 05:43:07;;;;;;;5.27;3.87;;;0.80;99.90;;;;;;5056266;28;20409;-80
2022/04/17 05:45:34;;;;;;;5.07;3.93;;;0.90;99.90;;;;;;5056602;28;20438;-80
2022/04/17 05:48:00;;;;;;;4.70;3.80;;;1.70;99.90;;;;;;5040115;28;20424;-81
2022/04/17 05:50:26;;;;;;;4.27;3.67;;;2.60;99.90;;;;;;5035905;28;20574;-80
2022/04/17 05:52:52;;;;;;;5.83;4.03;;;1.20;99.90;;;;;;5037967;28;20448;-80
2022/04/17 05:55:18;;;;;;;5.97;4.23;;;1.30;99.90;;;;;;5042494;28;20425;-81
2022/04/17 05:57:44;;;;;;;4.70;4.17;;;1.40;99.90;;;;;;5042339;28;20220;-81
2022/04/17 06:00:11;;;;;;;6.23;4.07;;;1.50;99.90;;;;;;5042262;28;20197;-81
2022/04/17 06:02:38;;;;;;;4.87;3.93;;;1.50;99.90;;;;;;5043717;28;20178;-81
2022/04/17 06:05:05;;;;;;;5.43;3.53;;;1.50;99.90;;;;;;5042117;28;20425;-81
2022/04/17 06:07:31;;;;;;;4.80;3.90;;;1.80;99.90;;;;;;5041336;28;20428;-80
2022/04/17 06:10:04;;;;;;;5.37;4.20;;;1.90;99.90;;;;;;5042113;28;20549;-81
2022/04/17 06:12:30;;;;;;;5.47;4.07;;;2.10;99.90;;;;;;5039516;28;20772;-81
2022/04/17 06:14:56;;;;;;;4.57;3.90;;;2.20;99.90;;;;;;5041624;28;20413;-81
2022/04/17 06:17:21;;;;;;;4.50;3.70;;;2.70;99.90;;;;;;5040898;28;20492;-81
2022/04/17 06:19:47;;;;;;;5.13;3.50;;;2.40;99.90;;;;;;5042238;28;20185;-81
2022/04/17 06:22:13;;;;;;;4.53;3.47;;;2.40;99.90;;;;;;5042126;28;20608;-81
2022/04/17 06:24:38;;;;;;;5.97;3.80;;;2.70;99.90;;;;;;5039886;28;20269;-81
2022/04/17 06:27:04;;;;;;;4.60;3.90;;;;;;;;;;5042267;28;20182;-80
2022/04/17 06:29:30;;;;;;;5.50;3.50;;;2.80;99.90;;;;;;5043089;28;20228;-80
2022/04/17 06:31:56;;;;;;;5.67;3.60;;;3.00;99.90;;;;;;5042818;28;20919;-82
2022/04/17 06:34:22;;;;;;;4.43;3.50;;;3.10;99.90;;;;;;5041307;28;20181;-82
2022/04/17 06:36:47;;;;;;;4.87;3.10;;;3.30;99.90;;;;;;5043455;28;20510;-79
2022/04/17 06:39:13;;;;;;;5.70;3.73;;;3.50;99.90;;;;;;5041534;28;20182;-81
2022/04/17 06:41:39;;;;;;;3.90;3.43;;;3.40;99.90;;;;;;5039682;28;20676;-81
2022/04/17 06:44:05;;;;;;;3.20;2.90;;;3.50;99.90;;;;;;5041987;28;20413;-82
2022/04/17 06:46:32;;;;;;;6.13;3.37;;;3.70;99.90;;;;;;5039593;28;20209;-80
2022/04/17 06:48:58;;;;;;;3.53;3.23;;;;;;;;;;5040998;28;20213;-82
2022/04/17 06:51:25;;;;;;;3.73;3.33;;;4.00;99.90;;;;;;5043954;28;20451;-81
2022/04/17 06:53:52;;;;;;;3.70;3.00;;;4.20;99.90;;;;;;5040414;28;20503;-81
2022/04/17 06:56:21;;;;;;;4.83;3.63;;;4.30;99.90;;;;;;5038979;28;20176;-81
2022/04/17 06:58:47;;;;;;;4.77;3.30;;;4.50;99.90;;;;;;5038519;28;20426;-81
2022/04/17 07:01:17;;;;;;;5.00;3.37;;;4.70;99.90;;;;;;5037939;28;20226;-81
2022/04/17 07:03:44;;;;;;;4.03;3.13;;;4.80;99.90;;;;;;5040850;28;20413;-81
2022/04/17 07:06:10;;;;;;;4.13;2.77;;;4.70;99.90;;;;;;5039979;28;20918;-81
2022/04/17 07:08:35;;;;;;;3.30;3.00;;;4.70;99.90;;;;;;5038525;28;20170;-81
2022/04/17 07:11:01;;;;;;;3.53;3.10;;;4.80;99.90;;;;;;5042734;28;20717;-81
2022/04/17 07:13:26;;;;;;;4.37;3.00;;;5.00;99.90;;;;;;5039516;28;20174;-83
2022/04/17 07:15:52;;;;;;;3.47;3.17;;;5.20;99.90;;;;;;5039158;28;20257;-83
2022/04/17 07:18:18;;;;;;;3.07;2.77;;;5.40;99.90;;;;;;5042281;28;20197;-80
2022/04/17 07:20:44;;;;;;;3.93;3.10;;;5.60;99.90;;;;;;5042212;28;20198;-81
2022/04/17 07:23:10;;;;;;;3.80;3.20;;;5.80;99.90;;;;;;5040427;28;20179;-81
2022/04/17 07:25:36;;;;;;;2.70;2.47;;;6.00;99.90;;;;;;5041364;28;20225;-82
2022/04/17 07:28:03;;;;;;;4.83;2.87;;;6.20;99.90;;;;;;5040930;28;20175;-81
2022/04/17 07:30:31;;;;;;;3.37;3.00;;;6.50;99.90;;;;;;5041340;28;20277;-80
2022/04/17 07:32:59;;;;;;;3.23;2.93;;;6.50;99.90;;;;;;5041769;28;20182;-82
2022/04/17 07:35:26;;;;;;;3.00;2.70;;;7.00;99.90;;;;;;5040644;28;20174;-81
2022/04/17 07:37:57;;;;;;;5.33;3.07;;;7.20;99.90;;;;;;5043699;28;20187;-82
2022/04/17 07:40:26;;;;;;;3.83;3.17;;;7.40;99.90;;;;;;5043109;28;20198;-83
2022/04/17 07:42:53;;;;;;;6.27;3.33;;;7.80;99.90;;;;;;5045661;28;20179;-82
2022/04/17 07:45:20;;;;;;;3.00;2.70;;;8.00;99.90;;;;;;5055061;28;20161;-82
2022/04/17 07:47:46;;;;;;;3.70;2.93;;;8.30;99.50;;;;;;5055112;28;20194;-80
2022/04/17 07:50:15;;;;;;;4.17;2.77;;;8.80;99.30;;;;;;5053763;28;20278;-82
2022/04/17 07:52:42;;;;;;;4.33;2.70;;;9.30;96.80;;;;;;5041542;28;20182;-82
2022/04/17 07:55:09;;;;;;;2.57;2.37;;;9.60;96.40;;;;;;5042602;28;20170;-82
2022/04/17 08:00:21;;;;;;;4.00;2.87;;;10.00;92.80;;;;;;5042398;28;20209;-83
2022/04/17 08:02:55;;;;;;;3.67;2.20;;;10.10;91.70;;;;;;5041156;28;20275;-79
2022/04/17 08:05:22;;;;;;;2.53;2.33;;;10.40;91.20;;;;;;5041614;28;20208;-80
2022/04/17 08:07:49;;;;;;;3.13;2.30;;;10.80;90.70;;;;;;5040607;28;20189;-80
2022/04/17 08:10:14;;;;;;;2.57;2.00;;;10.90;86.60;;;;;;5039280;28;20679;-80
2022/04/17 08:12:40;;;;;;;4.07;2.30;;;11.50;86.20;;;;;;5039237;28;20183;-80
2022/04/17 08:15:07;;;;;;;4.43;2.23;;;11.60;82.20;;;;;;5042089;28;20174;-81
2022/04/17 08:17:32;;;;;;;2.70;2.17;;;11.10;78.50;;;;;;5041849;28;20174;-81
2022/04/17 08:19:58;;;;;;;4.70;1.90;;;11.10;84.00;;;;;;5040987;28;20628;-80
2022/04/17 08:22:24;;;;;;;3.73;1.87;;;11.00;82.50;;;;;;5040474;28;20232;-81
2022/04/17 08:24:49;;;;;;;2.50;1.90;;;11.40;81.50;;;;;;5042122;28;20226;-81
2022/04/17 08:27:15;;;;;;;2.43;1.93;;;11.10;79.90;;;;;;5040675;28;20295;-81
2022/04/17 08:29:41;;;;;;;3.00;2.00;;;11.40;77.80;;;;;;5040482;28;20210;-80
2022/04/17 08:32:07;;;;;;;2.40;2.20;;;11.50;82.30;;;;;;5040437;28;20270;-80
2022/04/17 08:34:32;;;;;;;2.50;2.30;;;11.60;78.10;;;;;;5038402;28;20261;-80
2022/04/17 08:36:59;;;;;;;2.13;1.87;;;11.60;74.80;;;;;;5041294;28;20221;-79
2022/04/17 08:39:26;;;;;;;3.00;2.20;;;11.40;78.00;;;;;;5041687;28;20180;-80
2022/04/17 08:41:54;;;;;;;2.47;2.17;;;11.30;75.80;;;;;;5041160;28;20194;-81
2022/04/17 08:44:22;;;;;;;6.67;2.03;;;11.60;77.20;;;;;;5040190;28;20207;-80
2022/04/17 08:46:48;;;;;;;3.17;2.10;;;12.00;81.50;;;;;;5039571;28;20182;-81
2022/04/17 08:49:14;;;;;;;2.27;2.00;;;12.40;76.00;;;;;;5039388;28;20561;-81
2022/04/17 08:51:42;;;;;;;6.33;2.90;;;12.20;75.20;;;;;;5040431;28;20198;-80
2022/04/17 08:54:08;;;;;;;4.07;2.20;;;12.90;73.40;;;;;;5039121;28;20178;-82
2022/04/17 08:56:37;;;;;;;3.03;2.27;;;12.90;71.80;;;;;;5038825;28;20182;-80
2022/04/17 08:59:02;;;;;;;2.83;2.00;;;12.90;74.50;;;;;;5040802;28;20198;-82
2022/04/17 09:01:29;;;;;;;2.97;2.10;;;12.50;70.90;;;;;;5039146;28;20209;-82
2022/04/17 09:03:54;;;;;;;4.73;2.30;;;12.20;72.40;;;;;;5039961;28;20186;-81
2022/04/17 09:06:21;;;;;;;4.83;2.87;;;12.30;72.80;;;;;;5039960;28;20551;-80
2022/04/17 09:08:57;;;;;;;2.80;2.00;;;11.90;69.80;;;;;;5039584;28;20189;-81
2022/04/17 09:11:27;;;;;;;3.53;1.80;;;12.20;73.40;;;;;;5041060;28;20193;-83
2022/04/17 09:13:58;;;;;;;2.63;1.90;;;12.20;66.10;;;;;;5040366;28;20648;-81
2022/04/17 09:16:34;;;;;;;2.70;2.30;;;11.80;69.20;;;;;;5042646;28;20197;-83
2022/04/17 09:19:17;;;;;;;2.50;1.70;;;11.70;67.60;;;;;;5040904;28;20232;-82
2022/04/17 09:21:43;;;;;;;2.43;2.20;;;11.30;68.70;;;;;;5041373;28;20261;-83
2022/04/17 09:24:19;;;;;;;3.27;2.53;;;11.60;70.50;;;;;;5041787;28;20588;-83
2022/04/17 09:26:50;;;;;;;2.80;2.30;;;12.30;69.00;;;;;;5041773;28;20187;-82
2022/04/17 09:29:23;;;;;;;2.73;2.17;;;11.90;71.00;;;;;;5043948;28;20294;-83
2022/04/17 09:32:10;;;;;;;2.10;1.90;;;12.00;72.00;;;;;;5044483;28;20564;-83
2022/04/17 09:34:58;;;;;;;2.43;1.80;;;12.30;70.80;;;;;;5046865;28;20182;-83
2022/04/17 09:37:26;;;;;;;2.10;1.80;;;12.70;68.90;;;;;;5043526;28;20190;-82
2022/04/17 09:39:53;;;;;;;1.73;1.53;;;12.60;68.50;;;;;;5043629;28;20185;-84
2022/04/17 09:42:26;;;;;;;2.20;2.00;;;12.40;67.40;;;;;;5043651;28;20632;-80
2022/04/17 09:44:55;;;;;;;2.53;2.33;;;12.10;64.40;;;;;;5043737;28;20268;-83
2022/04/17 09:47:26;;;;;;;2.57;2.00;;;12.00;64.90;;;;;;5043503;28;20191;-83
2022/04/17 09:49:59;;;;;;;2.77;2.17;;;12.00;65.00;;;;;;5055039;28;20206;-83
2022/04/17 09:52:45;;;;;;;2.90;2.17;;;12.60;68.60;;;;;;5061974;28;20177;-83
2022/04/17 09:55:11;;;;;;;3.23;1.90;;;13.20;66.60;;;;;;5061412;28;20837;-83
2022/04/17 09:57:39;;;;;;;2.50;2.23;;;12.90;64.30;;;;;;5056815;28;20189;-81
2022/04/17 10:00:14;;;;;;;2.10;1.90;;;12.40;62.00;;;;;;5043457;28;20181;-82
2022/04/17 10:02:44;;;;;;;3.27;2.30;;;12.50;63.90;;;;;;5043783;28;20700;-81
2022/04/17 10:05:15;;;;;;;2.73;2.40;;;12.70;69.10;;;;;;5047851;28;20166;-82
2022/04/17 10:07:42;;;;;;;3.17;2.07;;;12.80;65.40;;;;;;5044177;28;20182;-83
2022/04/17 10:10:10;;;;;;;2.50;2.10;;;12.90;66.30;;;;;;5042190;28;20238;-82
2022/04/17 10:12:38;;;;;;;2.77;2.27;;;12.70;66.60;;;;;;5037969;28;20568;-83
2022/04/17 10:15:06;;;;;;;2.93;2.17;;;13.00;67.40;;;;;;5042363;28;20184;-84
2022/04/17 10:17:33;;;;;;;2.57;2.17;;;13.20;63.00;;;;;;5042587;28;20307;-83
2022/04/17 10:20:06;;;;;;;3.60;2.50;;;13.20;66.60;;;;;;5042689;28;20181;-81
2022/04/17 10:22:36;;;;;;;2.80;2.20;;;13.50;63.90;;;;;;5043458;28;20178;-83
2022/04/17 10:25:05;;;;;;;2.27;2.00;;;13.50;64.00;;;;;;5043511;28;20184;-83
2022/04/17 10:27:36;;;;;;;2.77;2.20;;;13.20;63.00;;;;;;5043004;28;20222;-82
2022/04/17 10:30:04;;;;;;;2.87;1.93;;;13.20;63.80;;;;;;5042345;28;20565;-84
2022/04/17 10:32:35;;;;;;;2.93;2.00;;;12.90;65.10;;;;;;5042179;28;20219;-83
2022/04/17 10:35:19;;;;;;;2.60;1.90;;;13.10;63.20;;;;;;5042128;28;20653;-83
2022/04/17 10:38:23;;;;;;;2.93;1.83;;;13.50;66.90;;;;;;5041303;28;20203;-82
2022/04/17 10:40:55;;;;;;;2.70;1.83;;;13.70;61.40;;;;;;5043046;28;20640;-83
2022/04/17 10:43:21;;;;;;;2.33;1.63;;;14.00;57.50;;;;;;5042405;28;20197;-81
2022/04/17 10:46:08;;;;;;;2.33;1.67;;;13.80;58.70;;;;;;5040774;28;20218;-82
2022/04/17 10:48:43;;;;;;;2.90;1.80;;;14.30;59.20;;;;;;5041207;28;20540;-81
2022/04/17 10:51:13;;;;;;;2.07;1.60;;;14.30;57.70;;;;;;5042927;28;20221;-83
2022/04/17 10:53:50;;;;;;;2.20;1.73;;;14.50;58.40;;;;;;5041818;28;20178;-83
2022/04/17 10:56:17;;;;;;;3.13;1.73;;;14.40;59.40;;;;;;5041990;28;20659;-82
2022/04/17 10:58:55;;;;;;;3.97;1.80;;;14.80;55.90;;;;;;5041213;28;20269;-82
2022/04/17 11:01:45;;;;;;;2.60;1.73;;;14.90;57.40;;;;;;5041673;28;20656;-78
2022/04/17 11:04:18;;;;;;;8.00;1.60;;;14.70;56.70;;;;;;5039912;28;20186;-82
2022/04/17 11:06:45;;;;;;;3.80;1.90;;;14.70;56.70;;;;;;5039773;28;20178;-81
2022/04/17 11:09:12;;;;;;;1.70;1.60;;;14.80;57.60;;;;;;5040188;28;20221;-82
2022/04/17 11:11:46;;;;;;;3.77;2.00;;;14.90;56.90;;;;;;5041419;28;20238;-81
2022/04/17 11:14:13;;;;;;;1.93;1.47;;;14.60;53.40;;;;;;5040474;28;20230;-80
2022/04/17 11:16:45;;;;;;;3.10;2.00;;;14.40;53.70;;;;;;5041444;28;20181;-80
2022/04/17 11:19:19;;;;;;;1.47;1.30;;;14.40;59.70;;;;;;5038823;28;20311;-80
2022/04/17 11:21:49;;;;;;;2.13;1.70;;;14.70;55.30;;;;;;5041794;28;20189;-82
2022/04/17 11:24:15;;;;;;;2.77;1.70;;;14.90;54.80;;;;;;5042251;28;20181;-80
2022/04/17 11:26:53;;;;;;;4.10;1.40;;;14.90;51.30;;;;;;5040880;28;20178;-82
2022/04/17 11:29:48;;;;;;;2.33;1.83;;;15.00;51.10;;;;;;5041299;28;20185;-81
2022/04/17 11:32:16;;;;;;;3.53;1.90;;;14.90;55.00;;;;;;5041934;28;20198;-82
2022/04/17 11:34:47;;;;;;;2.93;1.80;;;15.40;50.40;;;;;;5041474;28;20552;-82
2022/04/17 11:37:17;;;;;;;3.23;1.93;;;15.60;51.60;;;;;;5041118;28;20187;-81
2022/04/17 11:39:42;;;;;;;2.83;1.50;;;15.60;52.00;;;;;;5041706;28;20194;-82
2022/04/17 11:42:09;;;;;;;2.00;1.50;;;15.90;50.20;;;;;;5041306;28;20201;-83
2022/04/17 11:44:36;;;;;;;1.60;1.40;;;15.90;50.90;;;;;;5042771;28;20174;-82
2022/04/17 11:47:02;;;;;;;1.80;1.57;;;15.80;55.50;;;;;;5041110;28;20706;-83
2022/04/17 11:49:32;;;;;;;2.10;1.47;;;16.20;50.80;;;;;;5040028;28;20222;-83
2022/04/17 11:52:11;;;;;;;1.47;1.30;;;16.40;48.50;;;;;;5043099;28;20194;-83
2022/04/17 11:54:37;;;;;;;3.37;1.67;;;16.00;49.00;;;;;;5051241;28;20176;-82
2022/04/17 11:57:03;;;;;;;2.53;1.67;;;16.00;49.70;;;;;;5059507;28;20181;-82
2022/04/17 11:59:29;;;;;;;1.60;1.40;;;16.00;50.50;;;;;;5057444;28;20195;-80
2022/04/17 12:02:21;;;;;;;3.53;1.80;;;15.60;48.60;;;;;;5046895;28;20198;-81
2022/04/17 12:04:51;;;;;;;2.50;1.40;;;15.90;48.10;;;;;;5040132;28;20200;-80
2022/04/17 12:07:21;;;;;;;3.53;1.63;;;15.80;48.50;;;;;;5041453;28;20166;-81
2022/04/17 12:09:47;;;;;;;2.20;1.47;;;16.00;47.20;;;;;;5038000;28;20182;-76
2022/04/17 12:12:17;;;;;;;1.50;1.40;;;16.10;49.20;;;;;;5036806;28;20222;-81
2022/04/17 12:14:45;;;;;;;2.00;1.30;;;16.20;48.20;;;;;;5040411;28;20215;-82
2022/04/17 12:17:12;;;;;;;1.77;1.47;;;16.60;47.70;;;;;;5039178;28;20187;-81
2022/04/17 12:19:37;;;;;;;2.37;1.50;;;17.00;47.50;;;;;;5039327;28;20200;-82
2022/04/17 12:22:13;;;;;;;1.57;1.40;;;17.50;46.80;;;;;;5042319;28;20213;-83
2022/04/17 12:24:44;;;;;;;2.43;1.43;;;17.10;45.60;;;;;;5041398;28;20183;-82
2022/04/17 12:27:19;;;;;;;2.30;1.40;;;16.60;47.50;;;;;;5041365;28;20177;-82
2022/04/17 12:29:58;;;;;;;1.70;1.47;;;16.80;45.00;;;;;;5042001;28;20184;-84
2022/04/17 12:32:26;;;;;;;1.67;1.50;;;16.80;45.80;;;;;;5039193;28;20175;-83
2022/04/17 12:35:04;;;;;;;2.17;1.70;;;16.20;48.60;;;;;;5040819;28;20567;-80
2022/04/17 12:37:35;;;;;;;3.70;1.47;;;16.20;47.40;;;;;;5041619;28;20231;-83
2022/04/17 12:40:08;;;;;;;1.53;1.40;;;17.20;46.30;;;;;;5041636;28;20186;-82
2022/04/17 12:42:33;;;;;;;1.43;1.33;;;17.90;45.30;;;;;;5040620;28;20178;-78
2022/04/17 12:44:59;;;;;;;1.60;1.50;;;18.60;46.40;;;;;;5040817;28;20220;-79
2022/04/17 12:47:25;;;;;;;2.40;1.50;;;19.60;46.00;;;;;;5039506;28;20170;-80
2022/04/17 12:49:58;;;;;;;3.10;1.30;;;20.10;44.10;;;;;;5037743;28;20236;-81
2022/04/17 12:52:24;;;;;;;4.33;1.40;;;19.70;42.00;;;;;;5036173;28;20174;-81
2022/04/17 12:54:53;;;;;;;2.80;1.60;;;18.70;44.90;;;;;;5038649;28;20228;-82
2022/04/17 12:57:22;;;;;;;2.07;1.37;;;18.90;43.30;;;;;;5039221;28;20186;-82
2022/04/17 12:59:51;;;;;;;1.30;1.17;;;18.80;42.30;;;;;;5038163;28;20703;-81
2022/04/17 13:02:27;;;;;;;2.20;1.47;;;18.70;43.60;;;;;;5035903;28;20198;-83
2022/04/17 13:04:59;;;;;;;1.27;1.17;;;19.30;43.90;;;;;;5040680;28;20162;-82
2022/04/17 13:07:33;;;;;;;1.60;1.30;;;19.10;41.70;;;;;;5038682;28;20182;-83
2022/04/17 13:10:02;;;;;;;1.43;1.33;;;18.60;41.10;;;;;;5036100;28;20165;-81